CYFBCYRT

Guest
Details From CYFB - Iqaluit
To CYRT - RANKIN INLET
Flight Number -
Tags generated
Created
Modified
Stats Distance 648 nm / 1,199 km
Max Altitude 0 ft / 0 m
Waypoints 6
Social Downloads 0
Likes 0
Share VATSIM

Download

Looking for another format? Having issues loading an existing format? Contact us
Advertisement - Login to hide

Notes

None

Route

CYFB YFB J540 YZS NCAW N6250 CYRT

ID Type Via Altitude Latitude Longitude Leg Dist Tot Dist Heading (true) Name
O CYFB APT - 0 ft / 0 m 63.75657˚ -68.55606˚ - 0 nm - Iqaluit
YFB VOR - 0 ft / 0 m 63.74167˚ -68.47333˚ 2 nm 2 nm 112° / 112° FROBAY VOR
YTE NDB J540 (AWY-HI) 0 ft / 0 m 64.22861˚ -76.52806˚ 214 nm 216 nm 281° / 274° CAPE DORSET NDB
YZS NDB J540 (AWY-HI) 0 ft / 0 m 64.14850˚ -83.30475˚ 177 nm 393 nm 271° / 265° CORAL HARBOUR NDB
N6250 FIX NCAW (AWY-HI) 0 ft / 0 m 62.83333˚ -90.00000˚ 195 nm 589 nm 249° / 243° -
O CYRT APT - 0 ft / 0 m 62.81139˚ -92.11584˚ 58 nm 647 nm 270° / 268° RANKIN INLET

Altitude Profile

Advertisement - Login to hide

Weather


0- 5 10 15 20 25 30 35+ Temperature / ° C

Clouds and Precipitation
Forecast for 2017-12-14 06:00 UTC. Updated an hour ago

Ground ~20,000 ft ~40,000 ft Winds

CYFB

Details ICAO CYFB (YFB)
Name Iqaluit
Region Canada
Timezone America/Iqaluit (UTC-5.0)
Stats Elevation 110 ft / 34 m (AMSL)
Location 63.756565° -68.556058°
Runways 1
Magnetic Variation 27.543° W

METAR

CYFB 140600Z 11008KT 15SM -SN OVC030 M13/M19 A3007 RMK SC8 -SN INTMT SLP188

Decode

TAF

TAF TAF CYFB 140538Z 1406/1506 VRB03KT P6SM SCT025 BKN040 TEMPO 1406/1410 P6SM -SN BKN020 FM141000 35008KT P6SM SCT030 BKN200 TEMPO 1410/1413 P6SM -SN BKN020 FM141300 34010KT P6SM FEW030 BKN140 FM141700 36010KT P6SM BKN100 OVC200 BECMG 1502/1504 34018KT RMK NXT FCST BY 141200Z

Decode

Departure Runways

ID Width Length Bearing (true) Bearing (mag) Surface Threshold Offset Overrun Length
17 200 ft / 61 m 8,605 ft / 2,623 m 135.58° 163.12° Asphalt 0 ft / 0 m 210 ft / 64 m
35 200 ft / 61 m 8,605 ft / 2,623 m 315.62° 343.16° Asphalt 0 ft / 0 m 243 ft / 74 m

CYRT

Details ICAO CYRT (YRT)
Name RANKIN INLET
Region Canada
Timezone America/Rankin_Inlet (UTC-6.0)
Stats Elevation 94 ft / 29 m (AMSL)
Location 62.811388° -92.115836°
Runways 1
Magnetic Variation 6.848° W

METAR

CYRT 140600Z 34018KT 6SM -SN OVC015 M24/M27 A2997 RMK SC8 SLP154

Decode

TAF

TAF CYRT 140538Z 1406/1418 35015KT 5SM -SN OVC020 TEMPO 1406/1410 P6SM NSW BKN025 FM141000 34018KT P6SM SCT020 BKN070 TEMPO 1410/1418 4SM -SN BKN020 RMK NXT FCST BY 141200Z

Decode

Destination Runways

ID Width Length Bearing (true) Bearing (mag) Surface Threshold Offset Overrun Length
13T 150 ft / 46 m 5,982 ft / 1,823 m 129.03° 135.88° Asphalt 0 ft / 0 m 0 ft / 0 m
31T 150 ft / 46 m 5,982 ft / 1,823 m 309.05° 315.90° Asphalt 0 ft / 0 m 0 ft / 0 m

Popular Alternatives